Belshaw, Indiana
Current Conditions -  °F | °C
As of 8:35 PM on Friday 21 Nov 2014 (Local Time) from KIGQ Reporting Station
Broken Clouds Broken Clouds  
Wind Chill: 21°   Ceiling: 4000
Heat Index: 29°   Visibility: 10mi
Dew Point: 13°   Wind: 9mph
Humidity: 51%   Direction: 170°S
Pressure: 30.28"   Gusts: 17mph
Location:  41.2585°N, 87.4193°W
Report Text: KIGQ 220235Z AUTO 17008G15KT 10SM BKN040 M01/M11 A3028 RMK AO2 T10151106
Loading
Personal Weather Stations






























Interactive Weather Map New forecast layout! Learn more

10-Day Weather Forecast

Advertisements
Track Severe Weather on mobile